createdAt,value
2023-01-27T00:01:46.083Z,91.51
2023-01-27T00:04:15.133Z,91.26
2023-01-27T00:06:43.897Z,90.83
2023-01-27T00:09:14.283Z,90.94
2023-01-27T00:11:51.982Z,90.81
2023-01-27T00:14:20.964Z,91.55
2023-01-27T00:16:49.642Z,91.11
2023-01-27T00:19:20.010Z,91.70
2023-01-27T00:21:58.895Z,91.62
2023-01-27T00:24:38.983Z,91.04
2023-01-27T00:27:10.239Z,91.49
2023-01-27T00:29:41.693Z,91.52
2023-01-27T00:32:21.935Z,90.96
2023-01-27T00:34:52.062Z,91.51
2023-01-27T00:37:21.000Z,91.82
2023-01-27T00:39:51.289Z,91.97
2023-01-27T00:42:19.992Z,91.18
2023-01-27T00:45:02.562Z,91.75
2023-01-27T00:47:31.421Z,91.68
2023-01-27T00:50:00.184Z,91.22
2023-01-27T00:52:29.008Z,91.47
2023-01-27T00:54:59.203Z,91.16
2023-01-27T00:57:28.428Z,91.47
2023-01-27T00:59:59.710Z,91.23
2023-01-27T01:02:28.692Z,90.78
2023-01-27T01:04:57.434Z,91.63
2023-01-27T01:07:26.221Z,91.60
2023-01-27T01:09:55.116Z,91.48
2023-01-27T01:12:25.442Z,91.02
2023-01-27T01:14:54.281Z,91.18
2023-01-27T01:17:23.924Z,91.64
2023-01-27T01:19:52.875Z,91.31
2023-01-27T01:22:21.549Z,91.81
2023-01-27T01:24:50.286Z,91.29
2023-01-27T01:27:18.942Z,91.22
2023-01-27T01:29:49.172Z,91.64
2023-01-27T01:32:17.985Z,91.81
2023-01-27T01:34:46.696Z,91.85
2023-01-27T01:37:18.424Z,91.12
2023-01-27T01:39:47.221Z,91.33
2023-01-27T01:42:15.920Z,91.27
2023-01-27T01:44:46.628Z,91.28
2023-01-27T01:47:18.933Z,91.32
2023-01-27T01:49:49.169Z,91.28
2023-01-27T01:52:23.013Z,91.45
2023-01-27T01:54:56.925Z,91.11
2023-01-27T01:57:32.762Z,91.26
2023-01-27T02:00:07.225Z,91.86
2023-01-27T02:02:50.328Z,91.80
2023-01-27T02:05:24.605Z,91.86
2023-01-27T02:07:59.482Z,91.87
2023-01-27T02:10:28.425Z,91.38
2023-01-27T02:12:57.393Z,91.31
2023-01-27T02:15:26.525Z,91.49
2023-01-27T02:17:56.661Z,91.45
2023-01-27T02:20:32.595Z,91.40
2023-01-27T02:23:09.458Z,91.86
2023-01-27T02:25:48.870Z,91.55
2023-01-27T02:28:17.866Z,91.75
2023-01-27T02:30:46.983Z,91.86
2023-01-27T02:33:17.084Z,91.72
2023-01-27T02:35:53.123Z,91.82
2023-01-27T02:38:23.665Z,91.85
2023-01-27T02:40:59.215Z,91.32
2023-01-27T02:43:28.294Z,91.41
2023-01-27T02:45:57.018Z,91.58
2023-01-27T02:48:26.994Z,91.86
2023-01-27T02:50:55.841Z,92.24
2023-01-27T02:53:24.623Z,92.09
2023-01-27T02:55:54.793Z,92.20
2023-01-27T02:58:24.073Z,92.17
2023-01-27T03:01:00.901Z,91.87
2023-01-27T03:03:29.873Z,92.08
2023-01-27T03:05:58.634Z,92.17
2023-01-27T03:08:27.791Z,91.97
2023-01-27T03:10:58.103Z,91.49
2023-01-27T03:13:28.262Z,92.22
2023-01-27T03:16:12.066Z,91.71
2023-01-27T03:18:47.607Z,91.47
2023-01-27T03:21:17.984Z,92.30
2023-01-27T03:23:49.245Z,91.46
2023-01-27T03:26:24.344Z,92.16
2023-01-27T03:29:11.623Z,91.84
2023-01-27T03:31:45.862Z,91.48
2023-01-27T03:34:15.781Z,91.51
2023-01-27T03:37:03.123Z,92.02
2023-01-27T03:39:41.926Z,91.71
2023-01-27T03:42:21.908Z,91.81
2023-01-27T03:45:02.144Z,91.67
2023-01-27T03:47:30.965Z,91.42
2023-01-27T03:49:59.635Z,91.67
2023-01-27T03:52:28.408Z,91.98
2023-01-27T03:54:57.113Z,91.68
2023-01-27T03:57:27.386Z,92.07
2023-01-27T03:59:56.120Z,91.86
2023-01-27T04:02:33.880Z,91.79
2023-01-27T04:05:12.742Z,92.09
2023-01-27T04:07:41.752Z,92.08
2023-01-27T04:10:11.898Z,91.84
2023-01-27T04:12:41.246Z,91.56
2023-01-27T04:15:10.887Z,92.08
2023-01-27T04:17:42.181Z,91.59
2023-01-27T04:20:12.543Z,92.00
2023-01-27T04:22:41.267Z,91.68
2023-01-27T04:25:13.384Z,91.65
2023-01-27T04:27:43.823Z,92.24
2023-01-27T04:30:13.612Z,92.44
2023-01-27T04:32:42.380Z,91.62
2023-01-27T04:35:11.670Z,91.73
2023-01-27T04:37:40.750Z,91.84
2023-01-27T04:40:11.244Z,92.36
2023-01-27T04:42:40.056Z,92.21
2023-01-27T04:45:11.801Z,92.23
2023-01-27T04:47:41.119Z,91.65
2023-01-27T04:50:11.629Z,91.73
2023-01-27T04:52:40.433Z,91.67
2023-01-27T04:55:10.168Z,91.63
2023-01-27T04:57:39.063Z,92.14
2023-01-27T05:00:13.033Z,92.25
2023-01-27T05:02:41.839Z,91.90
2023-01-27T05:05:11.757Z,92.08
2023-01-27T05:07:40.956Z,91.84
2023-01-27T05:10:10.847Z,91.85
2023-01-27T05:12:39.589Z,92.46
2023-01-27T05:15:11.213Z,92.15
2023-01-27T05:17:40.204Z,91.45
2023-01-27T05:20:09.632Z,91.48
2023-01-27T05:22:38.663Z,91.29
2023-01-27T05:25:08.141Z,91.52
2023-01-27T05:27:37.714Z,91.31
2023-01-27T05:30:07.434Z,92.00
2023-01-27T05:32:37.626Z,91.45
2023-01-27T05:35:07.419Z,91.61
2023-01-27T05:37:36.063Z,91.18
2023-01-27T05:40:05.334Z,91.86
2023-01-27T05:42:34.012Z,91.78
2023-01-27T05:45:02.775Z,90.82
2023-01-27T05:47:31.791Z,90.71
2023-01-27T05:50:02.650Z,90.61
2023-01-27T05:52:31.447Z,90.38
2023-01-27T05:55:00.183Z,90.18
2023-01-27T05:57:28.890Z,90.59
2023-01-27T05:59:57.555Z,89.63
2023-01-27T06:02:26.333Z,90.02
2023-01-27T06:04:55.206Z,88.91
2023-01-27T06:07:25.436Z,88.38
2023-01-27T06:09:54.175Z,87.93
2023-01-27T06:12:22.874Z,88.18
2023-01-27T06:14:51.634Z,87.46
2023-01-27T06:17:20.564Z,87.97
2023-01-27T06:19:49.324Z,87.47
2023-01-27T06:22:18.049Z,86.33
2023-01-27T06:24:48.149Z,86.65
2023-01-27T06:27:16.964Z,85.52
2023-01-27T06:29:45.635Z,85.46
2023-01-27T06:32:14.341Z,84.97
2023-01-27T06:34:43.640Z,85.13
2023-01-27T06:37:12.423Z,84.59
2023-01-27T06:39:41.188Z,83.58
2023-01-27T06:42:11.401Z,83.89
2023-01-27T06:44:40.175Z,83.36
2023-01-27T06:47:08.936Z,82.84
2023-01-27T06:49:37.895Z,82.89
2023-01-27T06:52:06.607Z,82.81
2023-01-27T06:54:35.415Z,82.56
2023-01-27T06:57:04.153Z,81.88
2023-01-27T06:59:34.344Z,82.18
2023-01-27T07:02:03.234Z,81.94
2023-01-27T07:04:31.962Z,81.00
2023-01-27T07:07:00.634Z,81.67
2023-01-27T07:09:30.742Z,80.61
2023-01-27T07:12:01.147Z,81.14
2023-01-27T07:14:29.786Z,80.88
2023-01-27T07:17:00.148Z,80.35
2023-01-27T07:19:29.083Z,79.89
2023-01-27T07:21:57.811Z,80.70
2023-01-27T07:24:26.648Z,79.63
2023-01-27T07:26:55.528Z,80.38
2023-01-27T07:29:24.220Z,79.94
2023-01-27T07:31:53.122Z,79.14
2023-01-27T07:34:23.342Z,79.72
2023-01-27T07:36:53.186Z,79.14
2023-01-27T07:39:22.015Z,78.99
2023-01-27T07:41:51.120Z,78.73
2023-01-27T07:44:21.715Z,78.39
2023-01-27T07:46:51.002Z,77.86
2023-01-27T07:49:19.718Z,78.69
2023-01-27T07:51:49.794Z,78.43
2023-01-27T07:54:19.317Z,78.55
2023-01-27T07:56:48.027Z,77.65
2023-01-27T07:59:16.882Z,77.44
2023-01-27T08:01:47.912Z,77.51
2023-01-27T08:04:20.347Z,77.58
2023-01-27T08:06:50.885Z,76.70
2023-01-27T08:09:19.855Z,77.11
2023-01-27T08:11:48.486Z,76.79
2023-01-27T08:14:17.217Z,76.94
2023-01-27T08:16:45.935Z,76.66
2023-01-27T08:19:14.900Z,75.41
2023-01-27T08:21:43.951Z,75.54
2023-01-27T08:24:14.398Z,75.21
2023-01-27T08:26:43.124Z,75.74
2023-01-27T08:29:11.898Z,75.70
2023-01-27T08:31:42.055Z,75.16
2023-01-27T08:34:10.922Z,74.82
2023-01-27T08:36:43.725Z,75.06
2023-01-27T08:39:13.967Z,75.37
2023-01-27T08:41:43.353Z,75.36
2023-01-27T08:44:11.964Z,74.42
2023-01-27T08:46:40.933Z,74.30
2023-01-27T08:49:09.664Z,74.93
2023-01-27T08:51:38.502Z,74.92
2023-01-27T08:54:07.341Z,73.87
2023-01-27T08:56:37.856Z,73.72
2023-01-27T08:59:06.766Z,73.49
2023-01-27T09:01:35.795Z,74.39
2023-01-27T09:04:05.273Z,74.27
2023-01-27T09:06:33.919Z,73.61
2023-01-27T09:09:12.588Z,73.73
2023-01-27T09:11:44.757Z,74.01
2023-01-27T09:14:13.995Z,72.98
2023-01-27T09:16:42.715Z,72.53
2023-01-27T09:19:11.761Z,72.87
2023-01-27T09:21:40.677Z,73.47
2023-01-27T09:24:09.737Z,73.04
2023-01-27T09:26:38.385Z,72.43
2023-01-27T09:29:08.629Z,73.08
2023-01-27T09:31:38.106Z,72.90
2023-01-27T09:34:06.915Z,71.61
2023-01-27T09:36:42.841Z,71.57
2023-01-27T09:39:13.437Z,71.99
2023-01-27T09:42:06.575Z,71.85
2023-01-27T09:45:04.846Z,71.12
2023-01-27T09:47:58.579Z,71.50
2023-01-27T09:50:41.124Z,71.52
2023-01-27T09:53:31.507Z,71.22
2023-01-27T09:56:06.882Z,70.24
2023-01-27T09:58:50.488Z,69.92
2023-01-27T10:01:30.208Z,70.20
2023-01-27T10:04:16.404Z,70.21
2023-01-27T10:07:03.270Z,69.56
2023-01-27T10:09:51.852Z,69.49
2023-01-27T10:12:35.751Z,69.16
2023-01-27T10:15:18.215Z,69.27
2023-01-27T10:17:58.842Z,68.59
2023-01-27T10:20:35.614Z,68.47
2023-01-27T10:23:18.859Z,69.19
2023-01-27T10:26:00.446Z,68.96
2023-01-27T10:28:32.190Z,69.04
2023-01-27T10:31:02.964Z,68.65
2023-01-27T12:01:01.791Z,68.62
2023-01-27T12:03:45.213Z,68.70
2023-01-27T12:06:18.003Z,68.51
2023-01-27T12:08:49.957Z,67.79
2023-01-27T12:11:24.629Z,67.56
2023-01-27T12:13:56.102Z,66.95
2023-01-27T12:16:37.107Z,67.11
2023-01-27T12:19:16.479Z,67.88
2023-01-27T12:21:49.786Z,67.06
2023-01-27T12:24:28.873Z,67.20
2023-01-27T12:26:59.571Z,67.60
2023-01-27T12:29:33.931Z,67.63
2023-01-27T12:32:04.223Z,66.95
2023-01-27T12:34:37.239Z,67.02
2023-01-27T12:37:09.180Z,65.96
2023-01-27T12:39:43.563Z,66.18
2023-01-27T12:42:33.872Z,66.00
2023-01-27T12:45:02.631Z,66.31
2023-01-27T12:47:32.830Z,66.78
2023-01-27T12:50:22.659Z,66.79
2023-01-27T12:53:04.488Z,66.55
2023-01-27T12:55:35.472Z,66.52
2023-01-27T12:58:05.552Z,66.54
2023-01-27T13:00:36.121Z,66.35
2023-01-27T13:03:13.451Z,65.95
2023-01-27T13:05:46.022Z,66.09
2023-01-27T13:08:19.145Z,66.24
2023-01-27T13:10:52.899Z,66.82
2023-01-27T13:13:26.671Z,66.25
2023-01-27T13:15:59.277Z,66.39
2023-01-27T13:18:35.158Z,66.86
2023-01-27T13:21:14.731Z,66.41
2023-01-27T13:23:43.241Z,66.34
2023-01-27T13:26:18.643Z,66.48
2023-01-27T13:28:53.720Z,66.35
2023-01-27T13:31:34.915Z,65.87
2023-01-27T13:34:13.255Z,66.07
2023-01-27T13:36:45.714Z,65.39
2023-01-27T13:39:20.667Z,65.29
2023-01-27T13:41:57.318Z,65.96
2023-01-27T13:44:31.990Z,66.03
2023-01-27T13:47:05.347Z,66.73
2023-01-27T13:49:42.655Z,66.03
2023-01-27T13:52:13.309Z,66.27
2023-01-27T13:54:42.052Z,66.59
2023-01-27T13:57:35.450Z,65.83
2023-01-27T14:00:12.830Z,66.70
2023-01-27T14:03:07.964Z,66.08
2023-01-27T14:05:51.220Z,66.66
2023-01-27T14:08:46.599Z,66.99
2023-01-27T14:11:24.411Z,66.42
2023-01-27T14:14:14.917Z,66.96
2023-01-27T14:16:57.476Z,67.26
2023-01-27T14:19:35.628Z,66.89
2023-01-27T14:22:16.148Z,67.30
2023-01-27T14:24:53.924Z,66.51
2023-01-27T14:27:30.887Z,67.03
2023-01-27T14:30:08.307Z,67.67
2023-01-27T14:32:41.242Z,67.66
2023-01-27T14:35:33.518Z,67.35
2023-01-27T14:38:13.369Z,67.16
2023-01-27T14:40:54.941Z,67.66
2023-01-27T14:43:37.251Z,68.17
2023-01-27T14:46:12.396Z,67.75
2023-01-27T14:48:52.190Z,67.82
2023-01-27T14:51:29.538Z,68.15
2023-01-27T14:54:23.009Z,68.62
2023-01-27T14:57:09.598Z,68.32
2023-01-27T14:59:46.364Z,68.39
2023-01-27T15:02:41.087Z,68.96
2023-01-27T15:05:15.816Z,68.19
2023-01-27T15:07:53.306Z,68.42
2023-01-27T15:10:26.711Z,67.91
2023-01-27T15:13:15.871Z,68.04
2023-01-27T15:16:11.650Z,68.24
2023-01-27T15:19:05.191Z,68.20
2023-01-27T15:22:00.208Z,68.42
2023-01-27T15:24:52.481Z,68.09
2023-01-27T15:27:23.329Z,68.73
2023-01-27T15:29:53.025Z,68.69
2023-01-27T15:32:28.880Z,68.51
2023-01-27T15:35:23.641Z,68.35
2023-01-27T15:38:01.865Z,68.85
2023-01-27T15:40:30.752Z,69.44
2023-01-27T15:43:06.664Z,68.33
2023-01-27T15:45:38.442Z,69.33
2023-01-27T15:48:14.539Z,68.73
2023-01-27T15:50:48.895Z,69.54
2023-01-27T15:53:25.600Z,69.61
2023-01-27T15:55:57.520Z,68.83
2023-01-27T15:58:35.845Z,68.90
2023-01-27T16:01:09.051Z,69.26
2023-01-27T16:03:44.113Z,69.12
2023-01-27T16:06:17.095Z,69.79
2023-01-27T16:08:52.433Z,70.21
2023-01-27T16:11:39.822Z,69.92
2023-01-27T16:14:30.492Z,70.30
2023-01-27T16:17:18.089Z,70.59
2023-01-27T16:19:54.545Z,70.90
2023-01-27T16:22:24.111Z,71.59
2023-01-27T16:24:56.651Z,71.31
2023-01-27T16:27:39.647Z,71.54
2023-01-27T16:30:17.445Z,71.91
2023-01-27T16:33:06.806Z,71.92
2023-01-27T16:35:45.774Z,72.95
2023-01-27T16:38:23.865Z,73.47
2023-01-27T16:40:56.781Z,73.57
2023-01-27T16:43:31.778Z,73.67
2023-01-27T16:46:03.202Z,74.14
2023-01-27T16:48:40.621Z,74.46
2023-01-27T16:51:16.684Z,74.05
2023-01-27T16:53:49.283Z,74.18
2023-01-27T16:56:22.797Z,74.45
2023-01-27T16:58:52.403Z,74.96
2023-01-27T17:01:23.983Z,75.37
2023-01-27T17:04:04.845Z,75.50
2023-01-27T17:06:37.018Z,75.90
2023-01-27T17:09:25.042Z,76.55
2023-01-27T17:11:56.021Z,77.12
2023-01-27T17:14:32.187Z,76.85
2023-01-27T17:17:03.889Z,77.93
2023-01-27T17:19:36.223Z,77.69
2023-01-27T17:22:10.260Z,78.09
2023-01-27T17:24:44.555Z,77.66
2023-01-27T17:27:23.248Z,78.57
2023-01-27T17:29:56.940Z,78.16
2023-01-27T17:32:29.377Z,78.27
2023-01-27T17:35:01.694Z,78.62
2023-01-27T17:37:32.746Z,79.01
2023-01-27T17:40:03.745Z,79.23
2023-01-27T17:42:35.414Z,79.50
2023-01-27T17:45:23.987Z,79.89
2023-01-27T17:47:52.952Z,79.11
2023-01-27T17:50:26.196Z,79.96
2023-01-27T17:52:57.321Z,79.65
2023-01-27T17:55:27.885Z,79.50
2023-01-27T17:58:06.710Z,79.62
2023-01-27T18:00:40.510Z,79.81
2023-01-27T18:03:15.965Z,79.95
2023-01-27T18:05:47.629Z,79.99
2023-01-27T18:08:16.379Z,79.28
2023-01-27T18:10:45.365Z,79.86
2023-01-27T18:13:35.022Z,79.65
2023-01-27T18:16:04.552Z,79.35
2023-01-27T18:18:35.683Z,80.30
2023-01-27T18:21:15.571Z,79.85
2023-01-27T18:23:46.701Z,80.25
2023-01-27T18:26:20.195Z,79.76
2023-01-27T18:28:53.546Z,79.97
2023-01-27T18:31:25.799Z,80.49
2023-01-27T18:34:03.067Z,79.59
2023-01-27T18:36:36.054Z,79.81
2023-01-27T18:39:26.048Z,80.21
2023-01-27T18:41:55.091Z,79.43
2023-01-27T18:44:27.345Z,79.68
2023-01-27T18:47:02.521Z,80.45
2023-01-27T18:49:31.343Z,79.82
2023-01-27T18:52:01.610Z,80.09
2023-01-27T18:54:30.357Z,80.40
2023-01-27T18:56:59.162Z,79.89
2023-01-27T18:59:28.009Z,80.02
2023-01-27T19:01:56.988Z,80.02
2023-01-27T19:04:26.108Z,80.37
2023-01-27T19:06:54.807Z,80.54
2023-01-27T19:09:25.056Z,80.88
2023-01-27T19:11:57.149Z,81.04
2023-01-27T19:14:26.189Z,80.42
2023-01-27T19:16:54.887Z,80.44
2023-01-27T19:19:25.045Z,80.47
2023-01-27T19:21:53.806Z,80.86
2023-01-27T19:24:22.564Z,80.45
2023-01-27T19:26:52.840Z,81.05
2023-01-27T19:29:22.450Z,80.84
2023-01-27T19:31:51.229Z,81.14
2023-01-27T19:34:20.057Z,80.53
2023-01-27T19:36:48.667Z,80.66
2023-01-27T19:39:20.152Z,80.68
2023-01-27T19:41:49.074Z,80.50
2023-01-27T19:44:19.127Z,80.02
2023-01-27T19:46:47.888Z,80.06
2023-01-27T19:49:17.977Z,80.72
2023-01-27T19:51:47.116Z,79.86
2023-01-27T19:54:17.409Z,80.48
2023-01-27T19:56:46.739Z,80.33
2023-01-27T19:59:15.449Z,79.64
2023-01-27T20:01:45.676Z,80.25
2023-01-27T20:04:14.518Z,80.19
2023-01-27T20:06:43.297Z,80.00
2023-01-27T20:09:12.457Z,78.99
2023-01-27T20:11:42.554Z,79.82
2023-01-27T20:14:14.036Z,79.63
2023-01-27T20:16:43.716Z,79.15
2023-01-27T20:19:16.191Z,79.22
2023-01-27T20:21:46.119Z,79.50
2023-01-27T20:24:17.586Z,79.27
2023-01-27T20:26:46.405Z,78.48
2023-01-27T20:29:15.378Z,78.94
2023-01-27T20:31:44.264Z,78.84
2023-01-27T20:34:14.481Z,78.91
2023-01-27T20:36:43.319Z,78.55
2023-01-27T20:39:12.617Z,78.94
2023-01-27T20:41:41.380Z,78.87
2023-01-27T20:44:13.479Z,78.84
2023-01-27T20:46:42.211Z,78.39
2023-01-27T20:49:11.045Z,78.39
2023-01-27T20:51:41.275Z,78.54
2023-01-27T20:54:10.092Z,78.05
2023-01-27T20:56:39.254Z,79.12
2023-01-27T20:59:08.058Z,78.74
2023-01-27T21:01:37.269Z,79.01
2023-01-27T21:04:06.123Z,78.78
2023-01-27T21:06:35.133Z,79.04
2023-01-27T21:09:05.449Z,78.85
2023-01-27T21:11:34.231Z,79.09
2023-01-27T21:14:02.964Z,78.57
2023-01-27T21:16:31.738Z,78.44
2023-01-27T21:19:00.583Z,78.14
2023-01-27T21:21:32.384Z,78.00
2023-01-27T21:24:01.527Z,77.54
2023-01-27T21:26:33.172Z,77.56
2023-01-27T21:29:02.055Z,77.93
2023-01-27T21:31:31.218Z,77.78
2023-01-27T21:34:01.141Z,77.86
2023-01-27T21:36:30.247Z,77.84
2023-01-27T21:38:58.940Z,77.19
2023-01-27T21:41:38.931Z,77.56
2023-01-27T21:44:26.811Z,77.49
2023-01-27T21:46:56.174Z,77.31
2023-01-27T21:49:25.136Z,77.79
2023-01-27T21:51:55.079Z,76.88
2023-01-27T21:54:23.847Z,77.48
2023-01-27T21:56:52.564Z,77.00
2023-01-27T21:59:23.020Z,77.37
2023-01-27T22:01:55.518Z,76.83
2023-01-27T22:04:24.445Z,77.41
2023-01-27T22:06:53.225Z,76.87
2023-01-27T22:09:22.007Z,77.23
2023-01-27T22:11:50.711Z,76.46
2023-01-27T22:14:19.678Z,76.96
2023-01-27T22:16:51.606Z,77.32
2023-01-27T22:19:20.545Z,76.45
2023-01-27T22:21:49.252Z,76.97
2023-01-27T22:24:18.489Z,76.72
2023-01-27T22:26:47.267Z,76.07
2023-01-27T22:29:16.596Z,76.54
2023-01-27T22:31:45.319Z,76.71
2023-01-27T22:34:16.166Z,76.43
2023-01-27T22:36:45.020Z,76.41
2023-01-27T22:39:13.738Z,75.97
2023-01-27T22:41:42.529Z,75.96
2023-01-27T22:44:13.353Z,76.79
2023-01-27T22:46:43.471Z,76.55
2023-01-27T22:49:11.926Z,76.41
2023-01-27T22:51:42.616Z,76.05
2023-01-27T22:54:11.789Z,75.51
2023-01-27T22:56:40.571Z,76.45
2023-01-27T22:59:09.272Z,76.33
2023-01-27T23:01:38.507Z,75.45
2023-01-27T23:04:07.440Z,75.50
2023-01-27T23:06:36.292Z,75.47
2023-01-27T23:09:06.530Z,75.54
2023-01-27T23:11:35.432Z,76.44
2023-01-27T23:14:04.189Z,75.70
2023-01-27T23:16:33.702Z,75.79
2023-01-27T23:19:02.765Z,76.42
2023-01-27T23:21:31.909Z,75.65
2023-01-27T23:24:00.686Z,75.80
2023-01-27T23:26:30.929Z,75.51
2023-01-27T23:28:59.863Z,76.45
2023-01-27T23:31:28.735Z,75.73
2023-01-27T23:33:57.672Z,76.46
2023-01-27T23:36:26.603Z,76.07
2023-01-27T23:38:55.383Z,76.34
2023-01-27T23:41:24.412Z,76.48
2023-01-27T23:43:56.647Z,76.49
2023-01-27T23:46:26.014Z,76.48
2023-01-27T23:48:56.226Z,76.82
2023-01-27T23:51:25.111Z,76.61
2023-01-27T23:53:54.872Z,76.45
2023-01-27T23:56:23.744Z,76.32
2023-01-27T23:58:52.555Z,76.92
